Pearcy, Arkansas
Current Conditions -  °F | °C
As of 11:53 PM on Friday 31 Oct 2014 (Local Time) from KHOT Reporting Station
Clear Clear  
Wind Chill: 42°   Ceiling: Unl
Heat Index: 45°   Visibility: 10mi
Dew Point: 21°   Wind: 6mph
Humidity: 39%   Direction: 10°N
Pressure: 30.38"   Gusts: NA
Location:  34.43°N, 93.29°W
Report Text: KHOT 010453Z AUTO 01005KT 10SM CLR 07/M06 A3038 RMK AO2 SLP288 T00721061
Loading
Personal Weather Stations






























Interactive Weather Map
Tropical Storm Tracking
New forecast layout! Learn more

10-Day Weather Forecast

Advertisements
Track Severe Weather on mobile